Loxley, Alabama
Current Conditions -  °F | °C
As of 10:35 AM on Friday 24 Oct 2014 (Local Time) from KCQF Reporting Station
Clear Clear  
Wind Chill: 68°   Ceiling: Unl
Heat Index: 68°   Visibility: 10mi
Dew Point: 46°   Wind: 3mph
Humidity: 46%   Direction: 320°NW
Pressure: 30.09"   Gusts: NA
Location:  30.62°N, 87.75°W
Report Text: KCQF 241535Z AUTO 32003KT 10SM CLR 20/08 A3009 RMK AO2
Loading
Personal Weather Stations






























Interactive Weather Map
Tropical Storm Tracking
New forecast layout! Learn more

10-Day Weather Forecast

Advertisements
Track Severe Weather on mobile